Accueil
METAR-TAF:

METAR-TAF

Aéroports :

Büchel, Allemagne

Base aérienne de Büchel

latitude: 50-10N, longitude: 007-04E, altitude: 478 m

Observation

Le bulletin a été fait il y a 24 minutes, à 01:20 UTC
Vent 3 kt de ouest/sud-ouest
Température 13°C
Humidité 77%
Pression 1023 hPa
Visibilité 10 km ou plus

METAR: ETSB 170120Z AUTO 25003KT 9999 // ////// 13/09 Q1023 ///

Heure: 03:44 (01:44 UTC)

Prévision

Le bulletin a été fait il y a 10 heures et 4 minutes, à 15:40 UTC
Prévision valable du 16 à 15 UTC au 16 à 23 UTC
Vent 5 kt de sud-ouest
Visibilité: 1545 m
Quelques nuages à une hauteur de 25000 ft

TAF: ETSB 161540Z 1615/1623 22005KT 9999 NSW FEW250 CANCEL 1545 BY ETGL

Observations et prévisions météorologiques de plus de 4000 aéroports (messages METAR et TAF).

Les stations disponibles sont représentées par des disques jaunes et rouges sur la carte.

Passer la souris dessus pour voir le nom de la station.

Cliquer dessus pour voir les observations et prévisions météorologiques.

Pour changer de carte: cliquez sur les boutons verts avec une croix noire pour zoomer, sur le bouton vert avec un tiret pour effectuer un zoom arrière, ou sur les flèches vertes pour les cartes adjacentes.


METAR-TAF: